createdAt,value
2023-03-14T00:01:00.378Z,78.93
2023-03-14T00:03:29.377Z,78.63
2023-03-14T00:05:55.905Z,78.73
2023-03-14T00:08:22.529Z,78.21
2023-03-14T00:10:49.021Z,77.97
2023-03-14T00:13:15.602Z,78.27
2023-03-14T00:15:42.353Z,78.33
2023-03-14T00:18:08.901Z,78.67
2023-03-14T00:20:35.574Z,78.53
2023-03-14T00:23:03.477Z,78.59
2023-03-14T00:25:29.964Z,78.77
2023-03-14T00:27:56.468Z,78.64
2023-03-14T00:30:23.019Z,79.15
2023-03-14T00:32:49.647Z,78.98
2023-03-14T00:35:16.423Z,79.08
2023-03-14T00:37:43.071Z,79.07
2023-03-14T00:40:10.363Z,79.29
2023-03-14T00:42:36.962Z,79.78
2023-03-14T00:45:04.843Z,79.76
2023-03-14T00:47:31.375Z,79.60
2023-03-14T00:49:58.180Z,80.33
2023-03-14T00:52:24.808Z,80.60
2023-03-14T00:54:51.356Z,80.48
2023-03-14T00:57:17.913Z,80.98
2023-03-14T00:59:44.423Z,81.25
2023-03-14T01:02:11.195Z,81.82
2023-03-14T01:04:38.765Z,81.74
2023-03-14T01:07:05.297Z,82.45
2023-03-14T01:09:31.875Z,82.70
2023-03-14T01:11:58.700Z,82.44
2023-03-14T01:14:25.241Z,82.95
2023-03-14T01:16:51.811Z,83.96
2023-03-14T01:19:18.337Z,83.46
2023-03-14T01:21:44.952Z,84.08
2023-03-14T01:24:12.507Z,84.08
2023-03-14T01:26:39.019Z,84.79
2023-03-14T01:29:05.643Z,85.11
2023-03-14T01:31:32.417Z,85.32
2023-03-14T01:33:59.124Z,85.83
2023-03-14T01:36:25.660Z,85.88
2023-03-14T01:38:52.319Z,87.33
2023-03-14T01:41:25.193Z,86.68
2023-03-14T01:43:52.269Z,86.53
2023-03-14T01:46:23.293Z,86.88
2023-03-14T01:49:11.871Z,87.29
2023-03-14T01:52:02.286Z,87.07
2023-03-14T01:54:35.357Z,87.33
2023-03-14T01:57:15.765Z,87.72
2023-03-14T01:59:47.184Z,86.99
2023-03-14T02:02:15.443Z,87.91
2023-03-14T02:04:42.679Z,88.32
2023-03-14T02:07:32.349Z,88.57
2023-03-14T02:10:01.292Z,88.85
2023-03-14T02:12:28.209Z,89.22
2023-03-14T02:14:54.749Z,89.29
2023-03-14T02:17:23.442Z,89.46
2023-03-14T02:20:24.236Z,90.07
2023-03-14T02:22:51.082Z,90.18
2023-03-14T02:25:36.213Z,90.06
2023-03-14T02:28:03.000Z,90.38
2023-03-14T02:30:32.086Z,90.48
2023-03-14T02:33:00.825Z,90.92
2023-03-14T02:35:33.189Z,90.82
2023-03-14T02:38:30.574Z,90.62
2023-03-14T02:40:57.084Z,90.86
2023-03-14T02:43:23.968Z,90.80
2023-03-14T02:45:52.042Z,90.51
2023-03-14T02:48:26.186Z,90.37
2023-03-14T02:50:56.611Z,90.35
2023-03-14T02:53:27.578Z,90.25
2023-03-14T02:55:54.183Z,90.35
2023-03-14T02:58:21.695Z,90.56
2023-03-14T03:00:48.697Z,90.10
2023-03-14T03:03:15.657Z,90.26
2023-03-14T03:05:43.558Z,89.59
2023-03-14T03:08:10.850Z,89.56
2023-03-14T03:10:37.430Z,89.63
2023-03-14T03:13:03.948Z,89.82
2023-03-14T03:15:30.643Z,89.74
2023-03-14T03:17:57.213Z,89.54
2023-03-14T03:20:23.727Z,89.19
2023-03-14T03:22:50.928Z,89.29
2023-03-14T03:25:17.637Z,89.15
2023-03-14T03:27:44.206Z,88.88
2023-03-14T03:30:11.402Z,88.97
2023-03-14T03:32:38.004Z,88.44
2023-03-14T03:35:05.608Z,88.27
2023-03-14T03:37:33.277Z,88.11
2023-03-14T03:40:00.100Z,88.05
2023-03-14T03:42:27.976Z,87.95
2023-03-14T03:44:54.608Z,88.35
2023-03-14T03:47:21.173Z,88.02
2023-03-14T03:49:47.679Z,88.03
2023-03-14T03:52:14.258Z,87.80
2023-03-14T03:54:40.856Z,87.93
2023-03-14T03:57:07.441Z,88.45
2023-03-14T03:59:33.966Z,88.17
2023-03-14T04:02:00.627Z,87.72
2023-03-14T04:04:27.295Z,88.02
2023-03-14T04:06:53.948Z,88.09
2023-03-14T04:09:20.444Z,87.42
2023-03-14T04:11:46.976Z,87.75
2023-03-14T04:14:13.468Z,87.46
2023-03-14T04:16:40.018Z,86.90
2023-03-14T04:19:06.554Z,86.53
2023-03-14T04:21:33.071Z,87.21
2023-03-14T04:23:59.778Z,86.77
2023-03-14T04:26:26.378Z,87.16
2023-03-14T04:28:52.953Z,86.75
2023-03-14T04:31:21.667Z,87.30
2023-03-14T04:33:48.576Z,87.26
2023-03-14T04:36:15.514Z,87.36
2023-03-14T04:38:42.322Z,87.05
2023-03-14T04:41:08.875Z,87.54
2023-03-14T04:43:35.527Z,87.22
2023-03-14T04:46:02.048Z,86.76
2023-03-14T04:48:29.222Z,86.63
2023-03-14T04:50:56.095Z,87.10
2023-03-14T04:53:22.875Z,86.55
2023-03-14T04:55:54.091Z,87.25
2023-03-14T04:58:21.810Z,86.22
2023-03-14T05:00:48.925Z,86.79
2023-03-14T05:03:16.860Z,87.08
2023-03-14T05:05:43.736Z,85.82
2023-03-14T05:08:10.581Z,85.94
2023-03-14T05:10:37.267Z,86.29
2023-03-14T05:13:04.479Z,85.57
2023-03-14T05:15:31.259Z,85.79
2023-03-14T05:17:58.001Z,85.47
2023-03-14T05:20:24.528Z,85.95
2023-03-14T05:22:51.060Z,85.31
2023-03-14T05:25:17.593Z,86.13
2023-03-14T05:27:44.118Z,85.50
2023-03-14T05:30:11.462Z,86.08
2023-03-14T05:32:38.043Z,85.20
2023-03-14T05:35:04.917Z,84.62
2023-03-14T05:37:31.436Z,84.23
2023-03-14T05:39:57.971Z,84.69
2023-03-14T05:42:24.544Z,84.39
2023-03-14T05:44:51.060Z,84.27
2023-03-14T05:47:17.647Z,83.70
2023-03-14T05:49:44.240Z,84.08
2023-03-14T05:52:10.864Z,83.86
2023-03-14T05:54:37.388Z,83.36
2023-03-14T05:57:03.987Z,83.06
2023-03-14T05:59:30.506Z,82.58
2023-03-14T06:01:57.145Z,82.90
2023-03-14T06:04:23.812Z,81.97
2023-03-14T06:06:50.406Z,82.97
2023-03-14T06:09:17.114Z,82.28
2023-03-14T06:11:43.803Z,82.55
2023-03-14T06:14:10.502Z,82.37
2023-03-14T06:16:37.062Z,82.33
2023-03-14T06:19:03.672Z,81.63
2023-03-14T06:21:30.758Z,82.15
2023-03-14T06:23:57.360Z,81.90
2023-03-14T06:26:24.502Z,81.58
2023-03-14T06:28:52.020Z,81.03
2023-03-14T06:31:21.577Z,80.76
2023-03-14T06:33:48.280Z,80.96
2023-03-14T06:36:14.858Z,80.55
2023-03-14T06:38:41.422Z,80.46
2023-03-14T06:41:08.588Z,80.85
2023-03-14T06:43:35.218Z,80.51
2023-03-14T06:46:01.942Z,80.35
2023-03-14T06:48:28.591Z,80.34
2023-03-14T06:50:55.868Z,80.30
2023-03-14T06:53:22.577Z,79.97
2023-03-14T06:55:49.330Z,79.12
2023-03-14T06:58:15.977Z,78.80
2023-03-14T07:00:42.898Z,78.70
2023-03-14T07:03:13.288Z,78.70
2023-03-14T07:05:41.535Z,78.25
2023-03-14T07:08:09.280Z,78.31
2023-03-14T07:10:35.874Z,78.03
2023-03-14T07:13:02.683Z,77.93
2023-03-14T07:15:29.398Z,78.00
2023-03-14T07:17:56.061Z,78.00
2023-03-14T07:20:23.131Z,78.28
2023-03-14T07:22:51.163Z,77.75
2023-03-14T07:25:18.410Z,77.54
2023-03-14T07:27:46.269Z,77.37
2023-03-14T07:30:13.514Z,77.21
2023-03-14T07:32:40.329Z,77.49
2023-03-14T07:35:07.744Z,76.73
2023-03-14T07:37:34.327Z,77.02
2023-03-14T07:40:00.868Z,77.08
2023-03-14T07:42:27.467Z,76.81
2023-03-14T07:44:54.065Z,76.45
2023-03-14T07:47:20.797Z,74.85
2023-03-14T07:49:47.385Z,75.96
2023-03-14T07:52:14.209Z,75.74
2023-03-14T07:54:40.866Z,75.00
2023-03-14T07:57:07.614Z,75.19
2023-03-14T07:59:34.246Z,75.03
2023-03-14T08:02:00.952Z,74.88
2023-03-14T08:04:28.420Z,74.36
2023-03-14T08:06:55.492Z,74.45
2023-03-14T08:09:22.222Z,73.11
2023-03-14T08:11:48.757Z,73.97
2023-03-14T08:14:15.377Z,73.15
2023-03-14T08:16:41.951Z,73.13
2023-03-14T08:19:08.478Z,72.53
2023-03-14T08:21:35.124Z,72.72
2023-03-14T08:24:01.800Z,72.34
2023-03-14T08:26:28.509Z,71.67
2023-03-14T08:28:55.110Z,71.94
2023-03-14T08:31:22.013Z,71.40
2023-03-14T08:33:48.726Z,71.59
2023-03-14T08:36:15.441Z,71.56
2023-03-14T08:38:43.581Z,71.35
2023-03-14T08:41:10.742Z,70.64
2023-03-14T08:43:37.336Z,69.57
2023-03-14T08:46:04.547Z,67.59
2023-03-14T08:48:31.669Z,67.67
2023-03-14T08:51:09.609Z,67.63
2023-03-14T08:53:36.217Z,66.89
2023-03-14T08:56:02.941Z,67.00
2023-03-14T08:58:30.408Z,66.93
2023-03-14T09:00:57.578Z,67.32
2023-03-14T09:03:24.754Z,66.34
2023-03-14T09:05:52.586Z,65.55
2023-03-14T09:08:19.231Z,66.29
2023-03-14T09:10:45.863Z,66.15
2023-03-14T09:13:12.481Z,66.02
2023-03-14T09:15:39.844Z,65.90
2023-03-14T09:18:06.496Z,66.01
2023-03-14T09:20:33.147Z,66.14
2023-03-14T09:22:59.689Z,65.68
2023-03-14T09:25:26.272Z,66.09
2023-03-14T09:27:52.804Z,66.17
2023-03-14T09:30:19.454Z,65.65
2023-03-14T09:32:46.378Z,65.47
2023-03-14T09:35:12.988Z,65.67
2023-03-14T09:37:39.875Z,65.22
2023-03-14T09:40:11.720Z,64.90
2023-03-14T09:42:40.383Z,65.23
2023-03-14T09:45:13.804Z,65.05
2023-03-14T09:47:52.605Z,65.05
2023-03-14T09:50:26.733Z,65.09
2023-03-14T09:53:03.094Z,65.45
2023-03-14T09:55:29.752Z,65.47
2023-03-14T09:58:01.292Z,65.17
2023-03-14T10:00:31.626Z,65.06
2023-03-14T10:03:15.120Z,65.05
2023-03-14T10:05:42.868Z,65.21
2023-03-14T10:08:13.622Z,64.52
2023-03-14T10:10:40.722Z,64.09
2023-03-14T10:13:27.122Z,64.51
2023-03-14T10:16:02.544Z,63.69
2023-03-14T10:18:32.778Z,64.59
2023-03-14T10:21:08.715Z,63.53
2023-03-14T10:23:36.823Z,63.42
2023-03-14T10:26:10.046Z,63.25
2023-03-14T10:28:48.455Z,63.78
2023-03-14T10:31:16.235Z,62.95
2023-03-14T10:33:43.503Z,63.72
2023-03-14T10:36:24.069Z,62.84
2023-03-14T10:38:50.959Z,63.18
2023-03-14T10:41:24.801Z,62.96
2023-03-14T10:43:54.583Z,62.92
2023-03-14T10:46:21.672Z,61.83
2023-03-14T10:48:50.665Z,61.66
2023-03-14T10:51:25.225Z,62.22
2023-03-14T10:54:13.610Z,61.07
2023-03-14T10:56:40.261Z,62.70
2023-03-14T10:59:16.523Z,62.07
2023-03-14T11:01:53.133Z,62.30
2023-03-14T11:04:28.606Z,62.45
2023-03-14T11:06:55.095Z,63.59
2023-03-14T11:09:34.075Z,63.88
2023-03-14T11:12:38.165Z,63.62
2023-03-14T11:15:33.769Z,63.20
2023-03-14T11:18:34.197Z,63.54
2023-03-14T11:21:22.594Z,62.93
2023-03-14T11:24:04.106Z,63.64
2023-03-14T11:26:52.631Z,63.87
2023-03-14T11:29:38.001Z,64.57
2023-03-14T11:32:14.330Z,64.83
2023-03-14T11:34:52.625Z,65.25
2023-03-14T11:37:37.501Z,64.71
2023-03-14T11:40:15.796Z,64.38
2023-03-14T11:42:45.333Z,63.14
2023-03-14T11:45:20.034Z,62.51
2023-03-14T11:47:54.004Z,62.60
2023-03-14T11:50:25.469Z,62.01
2023-03-14T11:52:59.321Z,62.17
2023-03-14T11:55:28.919Z,62.08
2023-03-14T11:58:02.823Z,62.05
2023-03-14T12:00:30.619Z,62.31
2023-03-14T12:03:11.954Z,62.50
2023-03-14T12:06:20.913Z,62.65
2023-03-14T12:09:01.362Z,62.50
2023-03-14T12:11:43.436Z,63.33
2023-03-14T12:14:28.161Z,63.67
2023-03-14T12:17:03.704Z,63.71
2023-03-14T12:19:32.691Z,63.80
2023-03-14T12:22:09.715Z,62.54
2023-03-14T12:24:38.602Z,63.51
2023-03-14T12:27:09.881Z,62.15
2023-03-14T12:30:03.290Z,59.86
2023-03-14T12:32:33.247Z,59.72
2023-03-14T12:35:28.193Z,58.00
2023-03-14T12:37:58.154Z,56.84
2023-03-14T12:40:34.149Z,55.21
2023-03-14T12:43:04.288Z,55.98
2023-03-14T12:45:32.954Z,56.04
2023-03-14T12:48:03.414Z,54.77
2023-03-14T12:50:35.355Z,53.45
2023-03-14T12:53:46.076Z,52.12
2023-03-14T12:56:18.742Z,52.12
2023-03-14T12:58:49.603Z,52.43
2023-03-14T13:01:20.056Z,53.25
2023-03-14T13:03:52.068Z,53.63
2023-03-14T13:06:46.587Z,52.70
2023-03-14T13:09:56.670Z,53.79
2023-03-14T13:12:37.649Z,51.86
2023-03-14T13:15:14.353Z,53.29
2023-03-14T13:17:42.318Z,53.51
2023-03-14T13:20:24.023Z,52.01
2023-03-14T13:22:50.968Z,53.53
2023-03-14T13:25:19.368Z,53.94
2023-03-14T13:27:46.069Z,54.89
2023-03-14T13:30:28.060Z,54.81
2023-03-14T13:32:56.143Z,56.22
2023-03-14T13:35:29.048Z,56.58
2023-03-14T13:38:11.200Z,57.02
2023-03-14T13:40:39.090Z,57.43
2023-03-14T13:43:32.043Z,57.71
2023-03-14T13:46:08.060Z,58.12
2023-03-14T13:48:43.225Z,58.15
2023-03-14T13:51:14.295Z,58.16
2023-03-14T13:53:47.904Z,58.19
2023-03-14T13:56:14.828Z,58.37
2023-03-14T13:58:42.164Z,57.79
2023-03-14T14:01:19.726Z,58.49
2023-03-14T14:03:52.110Z,58.77
2023-03-14T14:06:31.357Z,59.58
2023-03-14T14:09:01.969Z,59.93
2023-03-14T14:11:59.242Z,60.11
2023-03-14T14:14:54.763Z,59.82
2023-03-14T14:17:27.246Z,60.42
2023-03-14T14:19:54.981Z,60.43
2023-03-14T14:22:21.756Z,60.45
2023-03-14T14:24:48.963Z,60.42
2023-03-14T14:27:27.324Z,60.14
2023-03-14T14:30:18.589Z,58.71
2023-03-14T14:32:47.618Z,59.09
2023-03-14T14:35:35.174Z,56.60
2023-03-14T14:38:02.715Z,58.73
2023-03-14T14:40:31.012Z,58.82
2023-03-14T14:43:05.720Z,60.12
2023-03-14T14:45:36.044Z,61.01
2023-03-14T14:48:02.609Z,61.98
2023-03-14T14:50:32.217Z,62.16
2023-03-14T14:53:00.690Z,62.45
2023-03-14T14:55:35.829Z,63.33
2023-03-14T14:58:22.517Z,63.12
2023-03-14T15:01:06.141Z,63.23
2023-03-14T15:03:34.688Z,63.41
2023-03-14T15:06:02.862Z,63.23
2023-03-14T15:08:29.489Z,63.66
2023-03-14T15:10:57.734Z,63.67
2023-03-14T15:13:24.569Z,63.75
2023-03-14T15:15:58.543Z,63.76
2023-03-14T15:18:31.401Z,64.02
2023-03-14T15:20:58.193Z,63.75
2023-03-14T15:23:25.224Z,63.58
2023-03-14T15:25:55.846Z,63.53
2023-03-14T15:28:28.580Z,63.28
2023-03-14T15:30:59.859Z,64.05
2023-03-14T15:33:27.354Z,63.81
2023-03-14T15:35:54.932Z,64.17
2023-03-14T15:38:23.899Z,63.68
2023-03-14T15:40:51.973Z,64.33
2023-03-14T15:43:19.806Z,64.01
2023-03-14T15:45:46.793Z,64.00
2023-03-14T15:48:16.998Z,63.91
2023-03-14T15:50:44.537Z,64.36
2023-03-14T15:53:12.079Z,64.54
2023-03-14T15:55:38.822Z,63.94
2023-03-14T15:58:05.640Z,64.31
2023-03-14T16:00:33.153Z,64.72
2023-03-14T16:02:59.709Z,64.41
2023-03-14T16:05:26.390Z,65.05
2023-03-14T16:07:53.097Z,65.03
2023-03-14T16:10:19.753Z,65.07
2023-03-14T16:12:46.661Z,65.27
2023-03-14T16:15:13.212Z,65.12
2023-03-14T16:17:41.131Z,65.01
2023-03-14T16:20:08.803Z,65.14
2023-03-14T16:22:35.830Z,65.41
2023-03-14T16:25:07.489Z,65.34
2023-03-14T16:27:34.064Z,65.72
2023-03-14T16:30:00.750Z,65.65
2023-03-14T16:32:27.754Z,65.74
2023-03-14T16:34:54.519Z,65.83
2023-03-14T16:37:23.182Z,65.65
2023-03-14T16:40:11.252Z,65.95
2023-03-14T16:42:40.837Z,66.05
2023-03-14T16:45:13.526Z,66.45
2023-03-14T16:47:40.089Z,66.40
2023-03-14T16:50:07.029Z,66.53
2023-03-14T16:52:33.570Z,66.59
2023-03-14T16:55:00.254Z,66.61
2023-03-14T16:57:26.830Z,67.08
2023-03-14T16:59:53.413Z,66.95
2023-03-14T17:02:20.164Z,66.72
2023-03-14T17:04:46.750Z,66.48
2023-03-14T17:07:13.406Z,66.72
2023-03-14T17:09:39.946Z,66.52
2023-03-14T17:12:07.118Z,66.90
2023-03-14T17:14:33.678Z,66.79
2023-03-14T17:17:01.712Z,66.73
2023-03-14T17:19:28.559Z,67.02
2023-03-14T17:22:09.283Z,67.70
2023-03-14T17:24:40.504Z,67.91
2023-03-14T17:27:07.062Z,67.67
2023-03-14T17:29:33.771Z,68.12
2023-03-14T17:32:00.300Z,68.83
2023-03-14T17:34:26.873Z,70.07
2023-03-14T17:36:53.418Z,70.71
2023-03-14T17:39:19.970Z,73.44
2023-03-14T17:41:48.019Z,72.99
2023-03-14T17:44:14.591Z,73.38
2023-03-14T17:46:41.371Z,75.63
2023-03-14T17:49:08.007Z,76.28
2023-03-14T17:51:34.578Z,76.72
2023-03-14T17:54:01.145Z,77.69
2023-03-14T17:56:27.705Z,78.13
2023-03-14T17:58:57.105Z,79.17
2023-03-14T18:01:24.246Z,79.66
2023-03-14T18:03:56.262Z,80.34
2023-03-14T18:06:23.592Z,81.38
2023-03-14T18:08:51.448Z,81.21
2023-03-14T18:11:18.436Z,81.18
2023-03-14T18:13:45.803Z,81.21
2023-03-14T18:16:16.119Z,81.40
2023-03-14T18:18:47.057Z,81.13
2023-03-14T18:21:16.457Z,81.36
2023-03-14T18:23:43.222Z,81.36
2023-03-14T18:26:10.904Z,81.81
2023-03-14T18:28:37.953Z,81.30
2023-03-14T18:31:11.764Z,81.90
2023-03-14T18:33:40.403Z,82.39
2023-03-14T18:36:12.215Z,82.68
2023-03-14T18:38:43.612Z,82.14
2023-03-14T18:41:12.836Z,81.69
2023-03-14T18:43:39.887Z,82.25
2023-03-14T18:46:06.507Z,82.63
2023-03-14T18:48:33.620Z,82.86
2023-03-14T18:51:01.005Z,83.59
2023-03-14T18:53:32.433Z,83.46
2023-03-14T18:56:02.782Z,83.52
2023-03-14T18:58:29.624Z,83.77
2023-03-14T19:01:01.613Z,83.75
2023-03-14T19:03:30.065Z,84.45
2023-03-14T19:06:00.719Z,84.81
2023-03-14T19:08:29.647Z,84.19
2023-03-14T19:11:01.029Z,84.63
2023-03-14T19:13:27.920Z,84.64
2023-03-14T19:15:54.803Z,84.82
2023-03-14T19:18:21.493Z,85.66
2023-03-14T19:21:03.633Z,85.60
2023-03-14T19:23:31.882Z,85.37
2023-03-14T19:25:58.661Z,84.83
2023-03-14T19:28:25.972Z,85.03
2023-03-14T19:30:52.773Z,85.25
2023-03-14T19:33:19.854Z,85.17
2023-03-14T19:35:47.294Z,83.45
2023-03-14T19:38:14.519Z,78.00
2023-03-14T19:40:43.032Z,76.94
2023-03-14T19:43:11.059Z,79.56
2023-03-14T19:45:37.799Z,80.51
2023-03-14T19:48:06.791Z,80.06
2023-03-14T19:50:35.562Z,80.66
2023-03-14T19:53:04.283Z,80.95
2023-03-14T19:55:35.470Z,81.93
2023-03-14T19:58:03.792Z,84.15
2023-03-14T20:00:30.417Z,84.46
2023-03-14T20:02:57.283Z,85.93
2023-03-14T20:05:25.135Z,86.47
2023-03-14T20:07:51.849Z,87.81
2023-03-14T20:10:22.841Z,89.40
2023-03-14T20:12:51.124Z,89.61
2023-03-14T20:15:19.609Z,90.66
2023-03-14T20:17:49.828Z,90.97
2023-03-14T20:20:16.831Z,91.38
2023-03-14T20:22:43.983Z,92.05
2023-03-14T20:25:13.685Z,92.89
2023-03-14T20:27:41.425Z,93.16
2023-03-14T20:30:12.781Z,93.70
2023-03-14T20:32:41.015Z,94.22
2023-03-14T20:35:11.511Z,94.86
2023-03-14T20:37:39.294Z,94.95
2023-03-14T20:40:15.804Z,95.04
2023-03-14T20:42:42.493Z,95.81
2023-03-14T20:45:09.448Z,95.35
2023-03-14T20:47:36.012Z,95.72
2023-03-14T20:50:03.691Z,95.84
2023-03-14T20:52:30.760Z,96.08
2023-03-14T20:54:59.544Z,95.94
2023-03-14T20:57:26.909Z,95.67
2023-03-14T20:59:53.453Z,95.49
2023-03-14T21:02:20.175Z,96.12
2023-03-14T21:04:47.270Z,96.38
2023-03-14T21:07:14.194Z,96.52
2023-03-14T21:09:41.677Z,96.23
2023-03-14T21:12:08.326Z,96.81
2023-03-14T21:14:35.106Z,96.36
2023-03-14T21:17:01.677Z,95.70
2023-03-14T21:19:33.015Z,96.21
2023-03-14T21:22:05.238Z,95.91
2023-03-14T21:24:34.467Z,95.77
2023-03-14T21:27:01.187Z,95.52
2023-03-14T21:29:27.866Z,95.47
2023-03-14T21:31:54.568Z,95.58
2023-03-14T21:34:25.192Z,95.45
2023-03-14T21:36:52.221Z,95.04
2023-03-14T21:39:18.746Z,95.45
2023-03-14T21:41:45.902Z,95.17
2023-03-14T21:44:16.153Z,94.59
2023-03-14T21:46:45.927Z,94.41
2023-03-14T21:49:14.075Z,94.75
2023-03-14T21:51:41.355Z,94.74
2023-03-14T21:54:10.412Z,94.31
2023-03-14T21:56:37.938Z,94.82
2023-03-14T21:59:05.007Z,94.96
2023-03-14T22:01:32.562Z,95.25
2023-03-14T22:04:00.151Z,95.10
2023-03-14T22:06:27.985Z,95.06
2023-03-14T22:08:57.318Z,95.08
2023-03-14T22:11:25.069Z,94.91
2023-03-14T22:13:51.854Z,95.36
2023-03-14T22:16:21.484Z,95.17
2023-03-14T22:18:48.036Z,94.84
2023-03-14T22:21:14.634Z,94.83
2023-03-14T22:23:41.289Z,94.70
2023-03-14T22:26:07.978Z,94.24
2023-03-14T22:28:34.620Z,94.15
2023-03-14T22:31:03.342Z,94.13
2023-03-14T22:33:31.386Z,94.14
2023-03-14T22:35:58.196Z,93.97
2023-03-14T22:38:25.170Z,93.27
2023-03-14T22:40:51.913Z,92.78
2023-03-14T22:43:18.648Z,93.56
2023-03-14T22:45:45.856Z,92.84
2023-03-14T22:48:12.723Z,93.11
2023-03-14T22:50:40.304Z,92.76
2023-03-14T22:53:07.017Z,93.11
2023-03-14T22:55:33.809Z,92.87
2023-03-14T22:58:01.050Z,93.15
2023-03-14T23:00:29.351Z,92.82
2023-03-14T23:02:55.950Z,93.00
2023-03-14T23:05:23.273Z,92.94
2023-03-14T23:07:49.834Z,92.49
2023-03-14T23:10:18.147Z,93.08
2023-03-14T23:12:48.158Z,93.24
2023-03-14T23:15:18.482Z,93.21
2023-03-14T23:17:45.254Z,93.45
2023-03-14T23:20:12.925Z,93.83
2023-03-14T23:22:39.534Z,93.21
2023-03-14T23:25:06.732Z,93.47
2023-03-14T23:27:33.449Z,93.68
2023-03-14T23:30:00.220Z,93.39
2023-03-14T23:32:27.287Z,93.60
2023-03-14T23:34:54.042Z,93.31
2023-03-14T23:37:23.488Z,93.87
2023-03-14T23:39:50.710Z,93.97
2023-03-14T23:42:17.436Z,93.73
2023-03-14T23:44:44.117Z,93.37
2023-03-14T23:47:10.761Z,93.62
2023-03-14T23:49:37.301Z,93.64
2023-03-14T23:52:04.131Z,93.83
2023-03-14T23:54:30.687Z,93.47
2023-03-14T23:56:57.261Z,93.38
2023-03-14T23:59:23.996Z,93.17
